Time;durP1;ratioP1;P1;durP2;ratioP2;P2;SDS_P1;SDS_P2;PMS_P1;PMS_P2;Temp;Humidity;BMP_temperature;BMP_pressure;BME280_temperature;BME280_humidity;BME280_pressure;Samples;Min_cycle;Max_cycle;Signal;HPM_P1;HPM_P2
2022/01/17 00:00:51;;;;;;;136.18;58.78;;;;;;;3.74;100.00;102941.69;4990781;28;20395;-87
2022/01/17 00:03:16;;;;;;;142.10;59.03;;;;;;;3.74;100.00;102941.69;4990450;28;20030;-87
2022/01/17 00:05:42;;;;;;;137.75;56.95;;;;;;;3.72;100.00;102940.78;4990930;28;20038;-87
2022/01/17 00:08:07;;;;;;;144.90;58.47;;;;;;;3.69;100.00;102941.66;4988662;28;20126;-86
2022/01/17 00:10:32;;;;;;;138.73;56.63;;;;;;;3.73;100.00;102961.88;4990714;28;20026;-87
2022/01/17 00:12:59;;;;;;;133.73;57.65;;;;;;;3.64;100.00;102946.00;4989189;28;20104;-87
2022/01/17 00:15:31;;;;;;;132.93;55.42;;;;;;;3.72;100.00;102973.31;4973186;28;20467;-87
2022/01/17 00:18:23;;;;;;;136.38;55.50;;;;;;;3.72;100.00;102982.91;4987914;28;20365;-87
2022/01/17 00:20:46;;;;;;;131.65;55.60;;;;;;;3.72;100.00;102978.56;4990533;28;20046;-87
2022/01/17 00:23:16;;;;;;;138.30;55.63;;;;;;;3.72;100.00;102975.03;4989987;28;20022;-87
2022/01/17 00:25:41;;;;;;;136.02;53.97;;;;;;;3.74;100.00;102970.66;4990207;28;20476;-87
2022/01/17 00:28:07;;;;;;;137.00;56.38;;;;;;;3.69;100.00;102969.75;4987074;28;20034;-87
2022/01/17 00:30:32;;;;;;;125.15;54.00;;;;;;;3.74;100.00;102981.22;4991078;28;20375;-87
2022/01/17 00:32:57;;;;;;;134.50;55.30;;;;;;;3.73;100.00;102977.69;4990148;28;20028;-87
2022/01/17 00:35:24;;;;;;;137.10;55.95;;;;;;;3.74;100.00;102973.31;4991034;28;20101;-87
2022/01/17 00:37:50;;;;;;;132.90;54.75;;;;;;;3.72;100.00;102975.03;4988999;28;20058;-87
2022/01/17 00:40:15;;;;;;;135.45;55.20;;;;;;;3.74;100.00;102965.41;4990160;28;20065;-87
2022/01/17 00:42:42;;;;;;;133.00;54.40;;;;;;;3.73;100.00;102956.63;4990459;28;20081;-88
2022/01/17 00:45:11;;;;;;;125.78;53.92;;;;;;;3.71;100.00;102950.44;4989521;28;20030;-88
2022/01/17 00:47:36;;;;;;;126.03;52.70;;;;;;;3.73;100.00;102966.28;4986999;28;20030;-87
2022/01/17 00:50:03;;;;;;;127.53;51.67;;;;;;;3.72;100.00;102973.31;4989517;28;20037;-87
2022/01/17 00:52:28;;;;;;;121.40;50.88;;;;;;;3.71;100.00;102968.00;4988445;28;20030;-87
2022/01/17 00:54:53;;;;;;;127.07;51.90;;;;;;;3.70;100.00;102977.66;4989924;28;20030;-87
2022/01/17 00:57:19;;;;;;;133.27;54.42;;;;;;;3.71;100.00;102978.53;4986689;28;20647;-87
2022/01/17 00:59:44;;;;;;;126.18;52.67;;;;;;;3.71;100.00;102968.88;4989953;28;20118;-87
2022/01/17 01:02:09;;;;;;;128.32;53.58;;;;;;;3.71;100.00;102968.00;4988652;28;20030;-87
2022/01/17 01:04:34;;;;;;;122.30;51.72;;;;;;;3.70;100.00;102960.97;4989619;28;20025;-87
2022/01/17 01:07:00;;;;;;;134.57;52.45;;;;;;;3.71;100.00;102975.91;4985572;28;20407;-87
2022/01/17 01:09:29;;;;;;;112.50;50.45;;;;;;;3.69;100.00;102980.28;4989119;28;20036;-87
2022/01/17 01:11:54;;;;;;;130.07;53.15;;;;;;;3.70;100.00;102982.03;4989094;28;20193;-87
2022/01/17 01:14:19;;;;;;;125.15;51.30;;;;;;;3.69;100.00;102990.81;4988699;28;20038;-87
2022/01/17 01:16:45;;;;;;;128.57;52.00;;;;;;;3.70;100.00;102992.56;4985716;28;20046;-86
2022/01/17 01:19:27;;;;;;;130.75;52.28;;;;;;;3.69;100.00;102989.06;4987847;28;20111;-87
2022/01/17 01:27:40;;;;;;;123.75;51.15;;;;;;;3.70;100.00;103001.34;4988266;28;20034;-87
2022/01/17 01:27:47;;;;;;;128.45;52.08;;;;;;;3.68;100.00;102984.66;4986730;28;20507;-87
2022/01/17 01:30:15;;;;;;;123.93;51.28;;;;;;;3.71;100.00;102991.69;4971236;28;20018;-87
2022/01/17 01:32:47;;;;;;;123.18;51.80;;;;;;;3.73;100.00;102982.97;4988395;28;20022;-87
2022/01/17 01:35:16;;;;;;;123.07;52.55;;;;;;;3.74;100.00;102981.22;4988275;28;20026;-87
2022/01/17 01:37:44;;;;;;;123.18;51.72;;;;;;;3.74;100.00;102976.81;4985930;28;20030;-87
2022/01/17 01:40:10;;;;;;;125.78;51.40;;;;;;;3.73;100.00;102976.81;4987857;28;20034;-87
2022/01/17 01:42:35;;;;;;;120.93;50.92;;;;;;;3.75;100.00;102978.59;4987814;28;20018;-87
2022/01/17 01:45:01;;;;;;;118.80;50.25;;;;;;;3.70;100.00;102967.13;4988119;28;20033;-88
2022/01/17 01:47:27;;;;;;;118.75;49.88;;;;;;;3.71;100.00;102978.53;4986368;28;20033;-87
2022/01/17 01:49:53;;;;;;;122.38;49.40;;;;;;;3.68;100.00;102974.13;4987930;28;20026;-86
2022/01/17 01:52:19;;;;;;;121.60;50.35;;;;;;;3.76;100.00;103005.81;4987326;28;20034;-87
2022/01/17 01:54:45;;;;;;;116.90;49.33;;;;;;;3.74;100.00;103004.91;4988458;28;20038;-87
2022/01/17 01:57:11;;;;;;;117.93;47.80;;;;;;;3.73;100.00;103018.97;4968607;28;20046;-87
2022/01/17 01:59:37;;;;;;;113.32;48.78;;;;;;;3.66;100.00;103017.09;4988848;28;20651;-87
2022/01/17 02:02:04;;;;;;;108.32;47.15;;;;;;;3.56;100.00;103009.97;4987360;28;20018;-87
2022/01/17 02:04:29;;;;;;;107.40;47.13;;;;;;;3.49;100.00;102995.81;4988509;28;20038;-87
2022/01/17 02:06:55;;;;;;;106.40;46.90;;;;;;;3.42;100.00;102980.81;4969214;28;20337;-87
2022/01/17 02:09:23;;;;;;;108.07;45.97;;;;;;;3.32;100.00;102982.44;4988042;28;20118;-87
2022/01/17 02:11:48;;;;;;;111.55;45.72;;;;;;;3.25;100.00;102996.38;4987787;28;20193;-87
2022/01/17 02:14:14;;;;;;;105.07;44.70;;;;;;;3.22;100.00;103004.25;4984380;28;20073;-87
2022/01/17 02:16:41;;;;;;;108.63;45.20;;;;;;;3.17;100.00;102998.88;4986679;28;20046;-87
2022/01/17 02:19:06;;;;;;;108.32;45.50;;;;;;;3.09;100.00;102997.00;4987200;28;20033;-87
2022/01/17 02:21:46;;;;;;;116.32;44.28;;;;;;;3.05;100.00;103001.34;4987941;28;20026;-87
2022/01/17 02:24:12;;;;;;;114.38;47.60;;;;;;;2.96;100.00;102988.94;4987196;28;20022;-87
2022/01/17 02:26:38;;;;;;;113.05;46.20;;;;;;;2.96;100.00;102999.47;4986781;28;20077;-87
2022/01/17 02:29:03;;;;;;;112.53;45.88;;;;;;;2.87;100.00;102990.56;4987132;28;20034;-87
2022/01/17 02:31:28;;;;;;;105.40;45.55;;;;;;;2.82;100.00;102990.50;4988313;28;20066;-87
2022/01/17 02:33:54;;;;;;;105.38;44.20;;;;;;;2.77;100.00;102994.81;4987140;28;20050;-88
2022/01/17 02:36:20;;;;;;;106.40;44.67;;;;;;;2.67;100.00;102990.22;4987151;28;20490;-87
2022/01/17 02:38:46;;;;;;;108.35;44.35;;;;;;;2.63;100.00;102981.41;4992197;28;20026;-87
2022/01/17 02:41:14;;;;;;;112.70;46.42;;;;;;;2.68;100.00;102994.66;4991407;28;20022;-87
2022/01/17 02:43:42;;;;;;;119.70;46.20;;;;;;;2.66;100.00;103007.75;4992045;28;20034;-87
2022/01/17 02:48:38;;;;;;;117.60;45.40;;;;;;;2.63;100.00;103001.56;4991834;28;20030;-87
2022/01/17 02:51:04;;;;;;;115.65;46.65;;;;;;;2.57;100.00;102989.22;4991875;28;20031;-87
2022/01/17 02:53:30;;;;;;;112.18;44.83;;;;;;;2.59;100.00;103005.00;4992271;28;20081;-87
2022/01/17 02:55:59;;;;;;;120.63;45.58;;;;;;;2.58;100.00;102995.34;4990429;28;20066;-87
2022/01/17 02:58:26;;;;;;;118.20;46.45;;;;;;;2.54;100.00;102997.03;4991802;28;20132;-87
2022/01/17 03:00:55;;;;;;;128.45;48.03;;;;;;;2.53;100.00;103003.16;4990164;28;20030;-87
2022/01/17 03:03:26;;;;;;;134.50;47.13;;;;;;;2.54;100.00;103002.28;4992179;28;20110;-87
2022/01/17 03:05:52;;;;;;;117.68;46.97;;;;;;;2.53;100.00;102997.03;4990004;28;20034;-87
2022/01/17 03:08:20;;;;;;;120.75;47.50;;;;;;;2.51;100.00;102991.75;4990421;28;20480;-87
2022/01/17 03:10:50;;;;;;;120.03;46.28;;;;;;;2.51;100.00;102986.50;4991365;28;20287;-87
2022/01/17 03:13:24;;;;;;;127.22;48.30;;;;;;;2.53;100.00;102973.38;4991500;28;20117;-88
2022/01/17 03:15:56;;;;;;;129.32;48.97;;;;;;;2.54;100.00;102976.00;4989598;28;20027;-87
2022/01/17 03:18:22;;;;;;;122.88;47.40;;;;;;;2.51;100.00;102983.88;4990275;28;20480;-87
2022/01/17 03:20:48;;;;;;;128.10;49.92;;;;;;;2.45;100.00;102962.72;4991808;28;20050;-88
2022/01/17 03:23:13;;;;;;;132.55;49.13;;;;;;;2.44;100.00;102976.72;4990968;28;20303;-87
2022/01/17 03:25:39;;;;;;;131.35;47.95;;;;;;;2.46;100.00;102983.75;4992329;28;20022;-88
2022/01/17 03:28:04;;;;;;;137.43;47.15;;;;;;;2.40;100.00;102988.94;4988777;28;20027;-87
2022/01/17 03:30:33;;;;;;;119.97;46.38;;;;;;;2.33;100.00;102973.03;4991822;28;20030;-87
2022/01/17 03:33:00;;;;;;;124.57;46.45;;;;;;;2.35;100.00;102973.94;4990810;28;20061;-87
2022/01/17 03:35:25;;;;;;;118.93;44.83;;;;;;;2.30;100.00;102973.88;4990701;28;20128;-88
2022/01/17 03:37:50;;;;;;;120.07;45.55;;;;;;;2.31;100.00;102975.63;4990173;28;20026;-87
2022/01/17 03:40:16;;;;;;;122.50;43.83;;;;;;;2.32;100.00;102971.25;4991157;28;20022;-87
2022/01/17 03:42:41;;;;;;;115.03;43.78;;;;;;;2.38;100.00;102985.41;4973931;28;20026;-87
2022/01/17 03:45:08;;;;;;;119.63;46.08;;;;;;;2.46;100.00;102991.66;4990374;28;20030;-87
2022/01/17 03:47:41;;;;;;;127.47;44.95;;;;;;;2.49;100.00;102998.72;4987646;28;20411;-87
2022/01/17 03:50:10;;;;;;;129.40;44.65;;;;;;;2.49;100.00;102999.59;4990267;28;20030;-87
2022/01/17 03:52:35;;;;;;;110.97;42.38;;;;;;;2.46;100.00;102999.53;4990631;28;20034;-87
2022/01/17 03:55:01;;;;;;;99.80;41.72;;;;;;;2.47;100.00;103006.59;4991379;28;20034;-87
2022/01/17 03:57:26;;;;;;;112.85;42.08;;;;;;;2.48;100.00;103000.47;4988891;28;20136;-87
2022/01/17 03:59:52;;;;;;;107.95;41.47;;;;;;;2.45;100.00;102992.50;4991215;28;20023;-87
2022/01/17 04:02:17;;;;;;;110.32;40.15;;;;;;;2.56;100.00;102994.47;4990016;28;20353;-87
2022/01/17 04:04:43;;;;;;;95.38;38.47;;;;;;;2.54;100.00;102985.66;4990783;28;20129;-87
2022/01/17 04:07:08;;;;;;;97.13;38.15;;;;;;;2.50;100.00;102982.06;4988074;28;20032;-87
2022/01/17 04:09:33;;;;;;;86.25;36.10;;;;;;;2.42;100.00;102987.19;4991714;28;20037;-87
2022/01/17 04:11:58;;;;;;;92.97;37.30;;;;;;;2.35;100.00;102987.97;4986758;28;20022;-87
2022/01/17 04:14:24;;;;;;;87.32;36.78;;;;;;;2.37;100.00;102995.88;4975793;28;20031;-87
2022/01/17 04:16:49;;;;;;;88.53;35.47;;;;;;;2.28;100.00;102990.47;4987482;28;20041;-87
2022/01/17 04:19:17;;;;;;;82.43;33.75;;;;;;;2.25;100.00;103002.66;4990211;28;20495;-87
2022/01/17 04:21:42;;;;;;;82.78;33.65;;;;;;;2.27;100.00;103012.34;4990500;28;20022;-88
2022/01/17 04:24:07;;;;;;;81.97;34.38;;;;;;;2.20;100.00;103006.97;4987991;28;20041;-87
2022/01/17 04:26:32;;;;;;;80.45;34.38;;;;;;;2.19;100.00;103007.81;4984821;28;20400;-88
2022/01/17 04:28:58;;;;;;;83.57;34.22;;;;;;;2.18;100.00;103013.94;4987395;28;20058;-88
2022/01/17 04:31:23;;;;;;;76.32;32.75;;;;;;;2.16;100.00;103010.38;4987272;28;20030;-88
2022/01/17 04:33:48;;;;;;;77.07;33.35;;;;;;;2.17;100.00;103009.56;4988145;28;20478;-88
2022/01/17 04:36:14;;;;;;;76.97;31.60;;;;;;;2.24;100.00;103021.03;4987163;28;20096;-87
2022/01/17 04:38:39;;;;;;;78.75;33.72;;;;;;;2.28;100.00;103027.25;4987471;28;20085;-87
2022/01/17 04:41:13;;;;;;;78.78;33.58;;;;;;;2.34;100.00;103029.97;4987951;28;20480;-87
2022/01/17 04:46:08;;;;;;;76.90;32.28;;;;;;;2.34;100.00;103012.50;4984861;28;20032;-88
2022/01/17 04:48:34;;;;;;;84.25;33.53;;;;;;;2.32;100.00;103006.31;4985710;28;20062;-86
2022/01/17 04:51:00;;;;;;;77.93;32.38;;;;;;;2.30;100.00;103007.13;4970722;28;20034;-86
2022/01/17 04:53:29;;;;;;;74.47;30.33;;;;;;;2.20;100.00;103006.09;4985159;28;20029;-86
2022/01/17 04:55:55;;;;;;;71.88;31.75;;;;;;;2.14;100.00;103005.97;4967378;28;20508;-86
2022/01/17 04:58:21;;;;;;;78.60;32.15;;;;;;;2.07;100.00;103004.97;4985239;28;20238;-86
2022/01/17 05:00:47;;;;;;;73.47;30.60;;;;;;;2.06;100.00;102990.06;4986643;28;20030;-86
2022/01/17 05:03:14;;;;;;;69.43;31.15;;;;;;;2.10;100.00;102999.78;4971443;28;20369;-86
2022/01/17 05:05:39;;;;;;;74.82;31.77;;;;;;;2.10;100.00;103026.06;4988315;28;20030;-86
2022/01/17 05:08:04;;;;;;;77.43;30.70;;;;;;;2.13;100.00;103025.19;4987477;28;20285;-86
2022/01/17 05:10:30;;;;;;;79.38;32.83;;;;;;;2.05;100.00;103029.44;4981206;28;20428;-86
2022/01/17 05:12:55;;;;;;;72.22;33.35;;;;;;;2.09;100.00;103026.91;4969900;28;20102;-85
2022/01/17 05:15:32;;;;;;;76.35;34.63;;;;;;;2.14;100.00;103037.50;4987243;28;20022;-86
2022/01/17 05:18:11;;;;;;;77.47;31.80;;;;;;;2.15;100.00;103039.28;4986517;28;20081;-86
2022/01/17 05:20:41;;;;;;;83.55;33.45;;;;;;;2.16;100.00;103051.53;4989025;28;20027;-86
2022/01/17 05:23:09;;;;;;;81.60;34.03;;;;;;;2.15;100.00;103055.03;4988532;28;20031;-86
2022/01/17 05:25:34;;;;;;;84.22;34.72;;;;;;;2.10;100.00;103064.56;4987883;28;20113;-86
2022/01/17 05:28:00;;;;;;;80.20;33.70;;;;;;;2.06;100.00;103055.75;4986864;28;20567;-86
2022/01/17 05:30:25;;;;;;;78.60;33.42;;;;;;;2.01;100.00;103049.53;4971066;28;20085;-86
2022/01/17 05:32:52;;;;;;;72.68;32.13;;;;;;;1.94;100.00;103048.50;4971245;28;20550;-86
2022/01/17 05:35:18;;;;;;;71.40;31.63;;;;;;;1.97;100.00;103053.81;4988389;28;20049;-86
2022/01/17 05:37:46;;;;;;;74.68;31.58;;;;;;;1.97;100.00;103055.56;4986176;28;20033;-86
2022/01/17 05:40:13;;;;;;;76.95;32.03;;;;;;;2.00;100.00;103064.38;4987820;28;20034;-86
2022/01/17 05:42:39;;;;;;;75.57;31.65;;;;;;;1.99;100.00;103067.84;4988268;28;20026;-86
2022/01/17 05:45:07;;;;;;;74.32;31.55;;;;;;;1.95;100.00;103059.88;4987892;28;20119;-86
2022/01/17 05:47:33;;;;;;;78.47;31.48;;;;;;;1.95;100.00;103057.25;4985687;28;20038;-86
2022/01/17 05:50:01;;;;;;;73.13;33.80;;;;;;;1.88;100.00;103056.28;4988651;28;20023;-86
2022/01/17 05:52:26;;;;;;;79.57;35.28;;;;;;;1.91;100.00;103056.31;4988420;28;20030;-86
2022/01/17 05:54:52;;;;;;;74.20;34.08;;;;;;;1.92;100.00;103054.56;4987920;28;20030;-86
2022/01/17 05:57:18;;;;;;;75.13;33.88;;;;;;;1.90;100.00;103065.06;4984759;28;20050;-86
2022/01/17 05:59:43;;;;;;;75.03;35.20;;;;;;;1.89;100.00;103059.78;4988352;28;20448;-86
2022/01/17 06:02:09;;;;;;;80.72;34.47;;;;;;;1.92;100.00;103059.81;4988142;28;20578;-86
2022/01/17 06:04:34;;;;;;;92.97;35.95;;;;;;;1.93;100.00;103074.75;4988456;28;20096;-86
2022/01/17 06:07:00;;;;;;;82.43;35.70;;;;;;;1.95;100.00;103067.78;4985520;28;20058;-86
2022/01/17 06:09:25;;;;;;;79.50;35.88;;;;;;;1.92;100.00;103063.34;4980462;28;20092;-86
2022/01/17 06:11:51;;;;;;;86.90;36.88;;;;;;;1.95;100.00;103065.13;4987080;28;20476;-87
2022/01/17 06:14:18;;;;;;;91.22;37.47;;;;;;;1.98;100.00;103076.59;4988171;28;20031;-87
2022/01/17 06:16:45;;;;;;;86.63;37.85;;;;;;;2.00;100.00;103074.88;4987976;28;20026;-87
2022/01/17 06:19:11;;;;;;;90.72;37.38;;;;;;;1.97;100.00;103080.09;4988364;28;20399;-84
2022/01/17 06:21:36;;;;;;;90.30;40.28;;;;;;;1.97;100.00;103068.69;4989437;28;20030;-85
2022/01/17 06:24:02;;;;;;;86.80;38.90;;;;;;;2.03;100.00;103070.56;4987756;28;20117;-85
2022/01/17 06:26:28;;;;;;;87.57;38.63;;;;;;;2.00;100.00;103069.63;4986956;28;20086;-84
2022/01/17 06:28:53;;;;;;;88.18;37.80;;;;;;;2.00;100.00;103072.25;4989135;28;20120;-86
2022/01/17 06:31:18;;;;;;;87.70;37.65;;;;;;;2.02;100.00;103093.31;4970644;28;20465;-85
2022/01/17 06:33:44;;;;;;;83.55;37.53;;;;;;;1.94;100.00;103077.38;4990987;28;20034;-86
2022/01/17 06:36:09;;;;;;;90.35;39.60;;;;;;;1.97;100.00;103072.22;4986277;28;20081;-86
2022/01/17 06:38:34;;;;;;;95.15;38.50;;;;;;;1.93;100.00;103056.34;4988827;28;20061;-87
2022/01/17 06:40:59;;;;;;;100.20;40.50;;;;;;;1.97;100.00;103074.84;4988346;28;20101;-87
2022/01/17 06:43:25;;;;;;;101.95;42.10;;;;;;;1.95;100.00;103068.66;4989071;28;20041;-86
2022/01/17 06:45:50;;;;;;;106.45;43.40;;;;;;;1.93;100.00;103085.25;4986255;28;20023;-87
2022/01/17 06:48:15;;;;;;;100.30;42.55;;;;;;;1.89;100.00;103078.16;4968754;28;20073;-86
2022/01/17 06:50:41;;;;;;;99.65;41.85;;;;;;;1.83;100.00;103071.03;4978695;28;20170;-87
2022/01/17 06:53:06;;;;;;;99.53;41.60;;;;;;;1.88;100.00;103084.25;4980407;28;20052;-87
2022/01/17 06:55:32;;;;;;;112.22;44.25;;;;;;;1.90;100.00;103090.44;4976628;28;20030;-87
2022/01/17 06:57:57;;;;;;;113.53;46.47;;;;;;;2.03;100.00;103113.47;4986688;28;20050;-87
2022/01/17 07:00:23;;;;;;;106.78;45.85;;;;;;;2.13;100.00;103120.69;4986199;28;20030;-86
2022/01/17 07:02:48;;;;;;;109.32;45.70;;;;;;;2.19;100.00;103128.69;4988645;28;20014;-86
2022/01/17 07:05:14;;;;;;;112.80;47.33;;;;;;;2.22;100.00;103131.38;4969335;28;20041;-87
2022/01/17 07:07:39;;;;;;;109.22;44.50;;;;;;;2.22;100.00;103131.38;4987776;28;20026;-87
2022/01/17 07:10:05;;;;;;;97.38;43.45;;;;;;;2.19;100.00;103160.22;4988116;28;20034;-87
2022/01/17 07:12:30;;;;;;;111.00;43.42;;;;;;;2.20;100.00;103159.34;4987644;28;20038;-87
2022/01/17 07:14:56;;;;;;;99.63;43.17;;;;;;;2.17;100.00;103140.91;4987366;28;20034;-87
2022/01/17 07:17:21;;;;;;;104.75;44.45;;;;;;;2.18;100.00;103131.28;4985523;28;20389;-87
2022/01/17 07:19:46;;;;;;;99.97;44.20;;;;;;;2.21;100.00;103118.19;4988307;28;20038;-87
2022/01/17 07:22:11;;;;;;;99.68;44.05;;;;;;;2.20;100.00;103108.56;4989399;28;20033;-87
2022/01/17 07:24:38;;;;;;;103.20;43.67;;;;;;;2.22;100.00;103093.72;4990615;28;20037;-86
2022/01/17 07:27:04;;;;;;;100.90;43.67;;;;;;;2.18;100.00;103087.50;4988949;28;20035;-87
2022/01/17 07:29:29;;;;;;;97.80;43.33;;;;;;;2.17;100.00;103083.13;4992269;28;20038;-88
2022/01/17 07:31:55;;;;;;;98.45;43.80;;;;;;;2.16;100.00;103068.19;4991618;28;20478;-86
2022/01/17 07:34:21;;;;;;;99.82;44.38;;;;;;;2.13;100.00;103093.50;4991780;28;20392;-87
2022/01/17 07:36:47;;;;;;;95.18;43.55;;;;;;;2.12;100.00;103099.63;4989758;28;20034;-87
2022/01/17 07:39:12;;;;;;;91.82;41.78;;;;;;;2.06;100.00;103108.28;4990499;28;20042;-88
2022/01/17 07:41:37;;;;;;;101.30;43.42;;;;;;;2.06;100.00;103113.53;4991653;28;20508;-88
2022/01/17 07:44:04;;;;;;;93.32;41.80;;;;;;;2.00;100.00;103105.50;4991455;28;20160;-88
2022/01/17 07:46:47;;;;;;;101.50;42.90;;;;;;;2.01;100.00;103104.69;4989465;28;20030;-86
2022/01/17 07:49:19;;;;;;;104.05;43.20;;;;;;;2.08;100.00;103110.94;4991142;28;20026;-87
2022/01/17 07:51:46;;;;;;;106.32;44.45;;;;;;;2.09;100.00;103116.22;4991772;28;20073;-85
2022/01/17 07:54:14;;;;;;;113.88;45.55;;;;;;;2.08;100.00;103110.94;4990288;28;20018;-88
2022/01/17 07:56:41;;;;;;;120.95;45.78;;;;;;;2.14;100.00;103119.84;4989889;28;20034;-87
2022/01/17 07:59:07;;;;;;;124.90;47.20;;;;;;;2.22;100.00;103131.38;4991354;28;20100;-87
2022/01/17 08:01:33;;;;;;;116.72;47.45;;;;;;;2.21;100.00;103134.84;4989649;28;20110;-87
2022/01/17 08:03:59;;;;;;;124.45;50.35;;;;;;;2.23;100.00;103141.03;4991173;28;20026;-86
2022/01/17 08:06:25;;;;;;;119.55;47.10;;;;;;;2.26;100.00;103145.47;4985786;28;20144;-87
2022/01/17 08:08:50;;;;;;;132.00;49.75;;;;;;;2.28;100.00;103150.75;4990335;28;20041;-87
2022/01/17 08:11:16;;;;;;;128.63;49.15;;;;;;;2.33;100.00;103146.47;4991634;28;20019;-87
2022/01/17 08:13:41;;;;;;;127.43;46.70;;;;;;;2.32;100.00;103150.84;4991503;28;20527;-86
2022/01/17 08:16:07;;;;;;;127.88;47.72;;;;;;;2.37;100.00;103154.44;4990719;28;20073;-89
2022/01/17 08:18:32;;;;;;;130.30;48.20;;;;;;;2.43;100.00;103162.47;4989756;28;20117;-87
2022/01/17 08:20:58;;;;;;;126.32;49.05;;;;;;;2.46;100.00;103161.63;4989400;28;20081;-84
2022/01/17 08:23:23;;;;;;;117.85;46.33;;;;;;;2.48;100.00;103167.81;4988891;28;20034;-86
2022/01/17 08:25:48;;;;;;;111.70;46.30;;;;;;;2.55;100.00;103160.91;4983335;28;20110;-84
2022/01/17 08:28:14;;;;;;;110.30;44.53;;;;;;;2.57;100.00;103159.22;4989884;28;20034;-85
2022/01/17 08:30:39;;;;;;;112.30;43.78;;;;;;;2.54;100.00;103153.88;4990572;28;20113;-87
2022/01/17 08:33:05;;;;;;;112.45;44.90;;;;;;;2.64;100.00;103161.13;4991150;28;20109;-90
2022/01/17 08:35:30;;;;;;;117.97;43.88;;;;;;;2.71;100.00;103157.72;4987437;28;20022;-87
2022/01/17 08:37:55;;;;;;;117.15;45.13;;;;;;;2.85;100.00;103168.53;4989381;28;20113;-87
2022/01/17 08:40:22;;;;;;;108.13;44.47;;;;;;;2.92;100.00;103149.34;4990740;28;20077;-87
2022/01/17 08:42:49;;;;;;;101.70;41.78;;;;;;;3.03;100.00;103146.91;4987357;28;20022;-86
2022/01/17 08:45:15;;;;;;;106.60;41.22;;;;;;;3.14;100.00;103142.72;4974171;28;20343;-87
2022/01/17 08:47:46;;;;;;;90.90;37.60;;;;;;;3.22;100.00;103143.72;4990612;28;20042;-87
2022/01/17 08:50:12;;;;;;;89.40;37.38;;;;;;;3.29;100.00;103142.94;4990595;28;20464;-87
2022/01/17 08:52:38;;;;;;;87.45;36.35;;;;;;;3.32;100.00;103140.38;4982056;28;20031;-87
2022/01/17 08:55:04;;;;;;;80.63;35.22;;;;;;;3.37;100.00;103135.19;4978143;28;20666;-86
2022/01/17 08:57:29;;;;;;;80.35;33.60;;;;;;;3.40;100.00;103145.75;4980740;28;20050;-87
2022/01/17 08:59:54;;;;;;;68.72;31.55;;;;;;;3.43;100.00;103141.44;4971195;28;20134;-87
2022/01/17 09:02:19;;;;;;;68.43;30.80;;;;;;;3.49;100.00;103149.41;4971110;28;20057;-85
2022/01/17 09:04:45;;;;;;;65.05;29.67;;;;;;;3.49;100.00;103151.16;4985166;28;20034;-86
2022/01/17 09:07:13;;;;;;;62.33;27.25;;;;;;;3.51;100.00;103159.97;4984831;28;20054;-87
2022/01/17 09:09:39;;;;;;;58.65;27.00;;;;;;;3.54;100.00;103181.06;4989557;28;20221;-87
2022/01/17 09:12:08;;;;;;;62.60;28.23;;;;;;;3.49;100.00;103159.94;4989451;28;20030;-87
2022/01/17 09:14:34;;;;;;;62.20;27.45;;;;;;;3.56;100.00;103170.59;4983268;28;20037;-87
2022/01/17 09:17:00;;;;;;;58.40;26.58;;;;;;;3.59;100.00;103181.16;4969250;28;20488;-87
2022/01/17 09:19:27;;;;;;;57.10;26.42;;;;;;;3.60;100.00;103191.72;4989859;28;20038;-87
2022/01/17 09:21:53;;;;;;;57.15;24.77;;;;;;;3.62;100.00;103200.53;4979858;28;20046;-86
2022/01/17 09:24:18;;;;;;;51.55;24.60;;;;;;;3.65;100.00;103191.78;4988479;28;20452;-87
2022/01/17 09:26:45;;;;;;;51.78;24.10;;;;;;;3.68;100.00;103194.47;4985262;28;20117;-87
2022/01/17 09:29:10;;;;;;;48.88;24.35;;;;;;;3.71;100.00;103191.88;4988602;28;20041;-87
2022/01/17 09:31:35;;;;;;;52.75;23.90;;;;;;;3.71;100.00;103210.31;4989524;28;20034;-87
2022/01/17 09:34:01;;;;;;;49.88;23.27;;;;;;;3.74;100.00;103208.63;4984113;28;20041;-87
2022/01/17 09:36:29;;;;;;;44.28;22.35;;;;;;;3.78;100.00;103209.53;4988618;28;20088;-87
2022/01/17 09:38:54;;;;;;;45.83;23.17;;;;;;;3.92;100.00;103212.38;4984439;28;20038;-87
2022/01/17 09:41:20;;;;;;;50.58;22.10;;;;;;;3.95;100.00;103205.41;4988954;28;20037;-87
2022/01/17 09:43:45;;;;;;;44.60;20.58;;;;;;;4.10;100.00;103209.16;4987110;28;20057;-87
2022/01/17 09:46:11;;;;;;;47.97;22.30;;;;;;;4.24;100.00;103216.34;4988624;28;20022;-87
2022/01/17 09:48:39;;;;;;;43.70;20.98;;;;;;;4.25;100.00;103215.47;4989552;28;20383;-87
2022/01/17 09:51:37;;;;;;;41.00;21.95;;;;;;;4.29;100.00;103221.69;4988766;28;20085;-87
2022/01/17 09:53:59;;;;;;;43.13;19.95;;;;;;;4.36;100.00;103231.44;4985805;28;20066;-87
2022/01/17 09:56:25;;;;;;;40.88;18.65;;;;;;;4.36;100.00;103234.09;4988726;28;20030;-86
2022/01/17 09:58:51;;;;;;;39.55;19.90;;;;;;;4.34;100.00;103225.25;4991204;28;20050;-87
2022/01/17 10:01:16;;;;;;;42.08;20.15;;;;;;;4.36;100.00;103241.13;4988621;28;20034;-87
2022/01/17 10:03:41;;;;;;;37.53;18.55;;;;;;;4.37;100.00;103249.03;4981443;28;20037;-87
2022/01/17 10:06:07;;;;;;;31.50;16.52;;;;;;;4.37;100.00;103227.94;4987447;28;20106;-87
2022/01/17 10:08:32;;;;;;;36.97;18.30;;;;;;;4.38;100.00;103237.63;4989141;28;20036;-87
2022/01/17 10:11:00;;;;;;;34.38;16.85;;;;;;;4.34;100.00;103238.44;4988847;28;20054;-87
2022/01/17 10:13:31;;;;;;;36.92;17.45;;;;;;;4.38;100.00;103231.47;4984021;28;20558;-85
2022/01/17 10:16:18;;;;;;;35.78;15.68;;;;;;;4.42;100.00;103249.09;4957523;28;20500;-88
2022/01/17 10:18:54;;;;;;;36.72;16.65;;;;;;;4.43;100.00;103246.50;4983400;28;20027;-88
2022/01/17 10:21:31;;;;;;;36.25;15.18;;;;;;;4.47;100.00;103252.66;4973989;28;20027;-88
2022/01/17 10:24:14;;;;;;;39.72;15.52;;;;;;;4.45;100.00;103235.97;4989006;28;20018;-88
2022/01/17 10:37:14;;;;;;;37.55;13.63;;;;;;;4.58;100.00;103242.28;4986589;28;20462;-88
2022/01/17 10:39:59;;;;;;;31.08;13.70;;;;;;;4.65;100.00;103252.03;4989234;28;20038;-89
2022/01/17 10:42:31;;;;;;;32.55;13.52;;;;;;;4.65;100.00;103258.19;4989138;28;20488;-90
2022/01/17 10:45:02;;;;;;;29.80;12.98;;;;;;;4.68;100.00;103257.31;4988470;28;20520;-90
2022/01/17 10:47:30;;;;;;;32.85;13.50;;;;;;;4.65;100.00;103252.91;4978651;28;20030;-88
2022/01/17 10:50:12;;;;;;;28.50;12.93;;;;;;;4.70;100.00;103267.03;4969441;28;20031;-88
2022/01/17 10:52:40;;;;;;;32.20;14.07;;;;;;;4.69;100.00;103249.44;4974321;28;20495;-88
2022/01/17 10:55:13;;;;;;;34.80;15.10;;;;;;;4.72;100.00;103264.41;4987668;28;20395;-89
2022/01/17 10:57:43;;;;;;;33.75;13.05;;;;;;;4.75;100.00;103272.38;4987371;28;20073;-89
2022/01/17 11:00:16;;;;;;;26.75;11.93;;;;;;;4.74;100.00;103284.69;4991792;28;20444;-88
2022/01/17 11:02:46;;;;;;;37.13;13.25;;;;;;;4.76;100.00;103287.31;4992999;28;20084;-89
2022/01/17 11:05:13;;;;;;;31.33;13.05;;;;;;;4.81;100.00;103301.50;4992532;28;20091;-89
2022/01/17 11:07:43;;;;;;;26.92;11.50;;;;;;;4.80;100.00;103286.50;4990245;28;20031;-89
2022/01/17 11:10:29;;;;;;;28.92;11.60;;;;;;;4.89;100.00;103294.56;4991492;28;20038;-88
2022/01/17 11:12:57;;;;;;;26.27;10.90;;;;;;;4.91;100.00;103291.91;4975028;28;20097;-89
2022/01/17 11:15:24;;;;;;;30.00;10.95;;;;;;;4.93;100.00;103293.72;4992246;28;20093;-89
2022/01/17 11:17:52;;;;;;;29.42;11.90;;;;;;;4.99;100.00;103295.53;4989448;28;20089;-89
2022/01/17 11:20:21;;;;;;;30.20;11.13;;;;;;;5.03;100.00;103294.69;4992370;28;20069;-90
2022/01/17 11:22:48;;;;;;;34.08;11.85;;;;;;;5.07;100.00;103299.16;4991620;28;20038;-87